sensor_id;sensor_type;location;lat;lon;timestamp;P1;durP1;ratioP1;P2;durP2;ratioP2
13085;SDS011;6609;49.882;8.664;2023-06-19T00:00:06;8.87;;;6.57;;
13085;SDS011;6609;49.882;8.664;2023-06-19T00:02:37;16.03;;;6.70;;
13085;SDS011;6609;49.882;8.664;2023-06-19T00:05:06;8.53;;;6.20;;
13085;SDS011;6609;49.882;8.664;2023-06-19T00:07:33;9.83;;;6.50;;
13085;SDS011;6609;49.882;8.664;2023-06-19T00:10:00;9.40;;;6.53;;
13085;SDS011;6609;49.882;8.664;2023-06-19T00:12:27;9.57;;;6.90;;
13085;SDS011;6609;49.882;8.664;2023-06-19T00:14:54;8.90;;;6.10;;
13085;SDS011;6609;49.882;8.664;2023-06-19T00:17:21;9.13;;;6.00;;
13085;SDS011;6609;49.882;8.664;2023-06-19T00:19:51;10.50;;;6.77;;
13085;SDS011;6609;49.882;8.664;2023-06-19T00:22:19;9.57;;;7.20;;
13085;SDS011;6609;49.882;8.664;2023-06-19T00:24:46;7.93;;;6.10;;
13085;SDS011;6609;49.882;8.664;2023-06-19T00:27:13;8.67;;;5.63;;
13085;SDS011;6609;49.882;8.664;2023-06-19T00:29:40;8.30;;;6.37;;
13085;SDS011;6609;49.882;8.664;2023-06-19T00:32:07;10.93;;;6.77;;
13085;SDS011;6609;49.882;8.664;2023-06-19T00:34:34;9.00;;;6.13;;
13085;SDS011;6609;49.882;8.664;2023-06-19T00:37:02;8.97;;;5.80;;
13085;SDS011;6609;49.882;8.664;2023-06-19T00:39:30;7.37;;;6.10;;
13085;SDS011;6609;49.882;8.664;2023-06-19T00:41:57;9.30;;;6.37;;
13085;SDS011;6609;49.882;8.664;2023-06-19T00:44:24;8.07;;;6.60;;
13085;SDS011;6609;49.882;8.664;2023-06-19T00:46:51;8.23;;;6.43;;
13085;SDS011;6609;49.882;8.664;2023-06-19T00:49:24;8.30;;;6.83;;
13085;SDS011;6609;49.882;8.664;2023-06-19T00:51:52;9.03;;;6.87;;
13085;SDS011;6609;49.882;8.664;2023-06-19T00:54:19;8.67;;;6.73;;
13085;SDS011;6609;49.882;8.664;2023-06-19T00:56:47;8.50;;;6.80;;
13085;SDS011;6609;49.882;8.664;2023-06-19T00:59:16;7.97;;;6.47;;
13085;SDS011;6609;49.882;8.664;2023-06-19T01:01:44;9.20;;;6.40;;
13085;SDS011;6609;49.882;8.664;2023-06-19T01:04:13;7.73;;;6.27;;
13085;SDS011;6609;49.882;8.664;2023-06-19T01:06:42;10.90;;;6.83;;
13085;SDS011;6609;49.882;8.664;2023-06-19T01:09:13;9.53;;;7.03;;
13085;SDS011;6609;49.882;8.664;2023-06-19T01:11:43;10.57;;;6.87;;
13085;SDS011;6609;49.882;8.664;2023-06-19T01:14:14;10.00;;;6.83;;
13085;SDS011;6609;49.882;8.664;2023-06-19T01:16:45;11.60;;;6.93;;
13085;SDS011;6609;49.882;8.664;2023-06-19T01:19:13;11.60;;;7.27;;
13085;SDS011;6609;49.882;8.664;2023-06-19T01:21:44;11.77;;;7.50;;
13085;SDS011;6609;49.882;8.664;2023-06-19T01:24:13;10.77;;;7.40;;
13085;SDS011;6609;49.882;8.664;2023-06-19T01:26:40;9.30;;;7.00;;
13085;SDS011;6609;49.882;8.664;2023-06-19T01:29:07;11.50;;;7.10;;
13085;SDS011;6609;49.882;8.664;2023-06-19T01:31:35;9.50;;;6.90;;
13085;SDS011;6609;49.882;8.664;2023-06-19T01:34:06;9.20;;;6.90;;
13085;SDS011;6609;49.882;8.664;2023-06-19T01:36:34;8.83;;;6.40;;
13085;SDS011;6609;49.882;8.664;2023-06-19T01:39:02;7.83;;;6.67;;
13085;SDS011;6609;49.882;8.664;2023-06-19T01:41:32;12.27;;;7.80;;
13085;SDS011;6609;49.882;8.664;2023-06-19T01:43:59;10.87;;;7.07;;
13085;SDS011;6609;49.882;8.664;2023-06-19T01:46:27;13.33;;;7.17;;
13085;SDS011;6609;49.882;8.664;2023-06-19T01:48:54;13.63;;;7.73;;
13085;SDS011;6609;49.882;8.664;2023-06-19T01:51:21;9.80;;;6.47;;
13085;SDS011;6609;49.882;8.664;2023-06-19T01:53:47;9.20;;;7.20;;
13085;SDS011;6609;49.882;8.664;2023-06-19T01:56:14;10.37;;;7.33;;
13085;SDS011;6609;49.882;8.664;2023-06-19T01:58:43;10.67;;;6.83;;
13085;SDS011;6609;49.882;8.664;2023-06-19T02:01:10;8.13;;;7.00;;
13085;SDS011;6609;49.882;8.664;2023-06-19T02:03:37;12.10;;;7.50;;
13085;SDS011;6609;49.882;8.664;2023-06-19T02:06:03;10.47;;;7.63;;
13085;SDS011;6609;49.882;8.664;2023-06-19T02:08:30;10.97;;;7.00;;
13085;SDS011;6609;49.882;8.664;2023-06-19T02:10:57;11.77;;;7.23;;
13085;SDS011;6609;49.882;8.664;2023-06-19T02:13:24;10.90;;;7.63;;
13085;SDS011;6609;49.882;8.664;2023-06-19T02:15:52;10.23;;;7.53;;
13085;SDS011;6609;49.882;8.664;2023-06-19T02:18:18;10.37;;;7.90;;
13085;SDS011;6609;49.882;8.664;2023-06-19T02:20:45;15.17;;;7.73;;
13085;SDS011;6609;49.882;8.664;2023-06-19T02:23:12;15.90;;;7.50;;
13085;SDS011;6609;49.882;8.664;2023-06-19T02:25:39;11.83;;;7.30;;
13085;SDS011;6609;49.882;8.664;2023-06-19T02:28:06;10.60;;;7.37;;
13085;SDS011;6609;49.882;8.664;2023-06-19T02:30:33;14.43;;;7.67;;
13085;SDS011;6609;49.882;8.664;2023-06-19T02:33:01;9.33;;;7.83;;
13085;SDS011;6609;49.882;8.664;2023-06-19T02:35:28;10.53;;;7.53;;
13085;SDS011;6609;49.882;8.664;2023-06-19T02:37:55;10.77;;;6.50;;
13085;SDS011;6609;49.882;8.664;2023-06-19T02:40:22;10.47;;;7.60;;
13085;SDS011;6609;49.882;8.664;2023-06-19T02:42:50;10.33;;;7.13;;
13085;SDS011;6609;49.882;8.664;2023-06-19T02:45:16;9.07;;;6.87;;
13085;SDS011;6609;49.882;8.664;2023-06-19T02:47:43;9.87;;;6.83;;
13085;SDS011;6609;49.882;8.664;2023-06-19T02:50:12;11.80;;;7.47;;
13085;SDS011;6609;49.882;8.664;2023-06-19T02:52:39;8.63;;;6.83;;
13085;SDS011;6609;49.882;8.664;2023-06-19T02:55:05;10.30;;;7.63;;
13085;SDS011;6609;49.882;8.664;2023-06-19T02:57:33;9.60;;;6.93;;
13085;SDS011;6609;49.882;8.664;2023-06-19T03:00:00;11.53;;;6.77;;
13085;SDS011;6609;49.882;8.664;2023-06-19T03:02:28;9.70;;;7.00;;
13085;SDS011;6609;49.882;8.664;2023-06-19T03:04:55;8.60;;;6.60;;
13085;SDS011;6609;49.882;8.664;2023-06-19T03:07:23;8.17;;;7.20;;
13085;SDS011;6609;49.882;8.664;2023-06-19T03:09:53;8.77;;;6.27;;
13085;SDS011;6609;49.882;8.664;2023-06-19T03:12:20;8.77;;;7.07;;
13085;SDS011;6609;49.882;8.664;2023-06-19T03:14:47;8.67;;;7.07;;
13085;SDS011;6609;49.882;8.664;2023-06-19T03:17:14;11.23;;;7.23;;
13085;SDS011;6609;49.882;8.664;2023-06-19T03:19:41;8.03;;;7.00;;
13085;SDS011;6609;49.882;8.664;2023-06-19T03:22:08;8.07;;;6.40;;
13085;SDS011;6609;49.882;8.664;2023-06-19T03:24:36;10.10;;;7.07;;
13085;SDS011;6609;49.882;8.664;2023-06-19T03:27:03;9.20;;;6.83;;
13085;SDS011;6609;49.882;8.664;2023-06-19T03:29:30;6.83;;;5.87;;
13085;SDS011;6609;49.882;8.664;2023-06-19T03:31:57;11.17;;;7.27;;
13085;SDS011;6609;49.882;8.664;2023-06-19T03:34:24;11.07;;;7.27;;
13085;SDS011;6609;49.882;8.664;2023-06-19T03:36:51;12.57;;;7.30;;
13085;SDS011;6609;49.882;8.664;2023-06-19T03:39:19;10.70;;;6.87;;
13085;SDS011;6609;49.882;8.664;2023-06-19T03:41:47;9.93;;;7.07;;
13085;SDS011;6609;49.882;8.664;2023-06-19T03:44:14;11.20;;;7.27;;
13085;SDS011;6609;49.882;8.664;2023-06-19T03:46:41;10.27;;;6.93;;
13085;SDS011;6609;49.882;8.664;2023-06-19T03:49:08;10.87;;;7.23;;
13085;SDS011;6609;49.882;8.664;2023-06-19T03:51:35;14.70;;;7.40;;
13085;SDS011;6609;49.882;8.664;2023-06-19T03:54:02;10.70;;;7.03;;
13085;SDS011;6609;49.882;8.664;2023-06-19T03:56:29;9.70;;;7.27;;
13085;SDS011;6609;49.882;8.664;2023-06-19T03:58:57;12.73;;;8.10;;
13085;SDS011;6609;49.882;8.664;2023-06-19T04:01:24;11.77;;;8.00;;
13085;SDS011;6609;49.882;8.664;2023-06-19T04:03:51;11.33;;;7.43;;
13085;SDS011;6609;49.882;8.664;2023-06-19T04:06:18;9.70;;;6.90;;
13085;SDS011;6609;49.882;8.664;2023-06-19T04:08:44;10.40;;;7.27;;
13085;SDS011;6609;49.882;8.664;2023-06-19T04:11:12;12.00;;;6.77;;
13085;SDS011;6609;49.882;8.664;2023-06-19T04:13:39;9.77;;;6.33;;
13085;SDS011;6609;49.882;8.664;2023-06-19T04:16:07;10.60;;;7.37;;
13085;SDS011;6609;49.882;8.664;2023-06-19T04:18:33;11.77;;;7.13;;
13085;SDS011;6609;49.882;8.664;2023-06-19T04:21:00;12.67;;;7.10;;
13085;SDS011;6609;49.882;8.664;2023-06-19T04:23:27;10.83;;;7.33;;
13085;SDS011;6609;49.882;8.664;2023-06-19T04:25:54;11.40;;;6.70;;
13085;SDS011;6609;49.882;8.664;2023-06-19T04:28:21;10.57;;;6.57;;
13085;SDS011;6609;49.882;8.664;2023-06-19T04:30:48;10.73;;;6.87;;
13085;SDS011;6609;49.882;8.664;2023-06-19T04:33:16;9.23;;;6.47;;
13085;SDS011;6609;49.882;8.664;2023-06-19T04:35:46;9.07;;;6.23;;
13085;SDS011;6609;49.882;8.664;2023-06-19T04:38:13;8.53;;;5.87;;
13085;SDS011;6609;49.882;8.664;2023-06-19T04:40:40;13.73;;;6.70;;
13085;SDS011;6609;49.882;8.664;2023-06-19T04:43:08;12.33;;;6.83;;
13085;SDS011;6609;49.882;8.664;2023-06-19T04:45:35;10.63;;;6.57;;
13085;SDS011;6609;49.882;8.664;2023-06-19T04:48:03;11.67;;;7.10;;
13085;SDS011;6609;49.882;8.664;2023-06-19T04:50:31;13.57;;;7.43;;
13085;SDS011;6609;49.882;8.664;2023-06-19T04:52:58;8.10;;;6.37;;
13085;SDS011;6609;49.882;8.664;2023-06-19T04:55:25;11.40;;;6.80;;
13085;SDS011;6609;49.882;8.664;2023-06-19T04:57:52;11.20;;;6.83;;
13085;SDS011;6609;49.882;8.664;2023-06-19T05:00:19;11.80;;;6.50;;
13085;SDS011;6609;49.882;8.664;2023-06-19T05:02:46;12.67;;;7.00;;
13085;SDS011;6609;49.882;8.664;2023-06-19T05:05:13;13.60;;;7.13;;
13085;SDS011;6609;49.882;8.664;2023-06-19T05:07:42;10.53;;;6.30;;
13085;SDS011;6609;49.882;8.664;2023-06-19T05:10:10;8.90;;;6.47;;
13085;SDS011;6609;49.882;8.664;2023-06-19T05:12:37;11.10;;;6.57;;
13085;SDS011;6609;49.882;8.664;2023-06-19T05:15:04;10.03;;;6.37;;
13085;SDS011;6609;49.882;8.664;2023-06-19T05:17:31;10.10;;;6.07;;
13085;SDS011;6609;49.882;8.664;2023-06-19T05:19:58;7.93;;;5.30;;
13085;SDS011;6609;49.882;8.664;2023-06-19T05:22:25;8.80;;;5.67;;
13085;SDS011;6609;49.882;8.664;2023-06-19T05:24:54;10.50;;;5.73;;
13085;SDS011;6609;49.882;8.664;2023-06-19T05:27:21;10.13;;;5.73;;
13085;SDS011;6609;49.882;8.664;2023-06-19T05:29:48;11.07;;;5.77;;
13085;SDS011;6609;49.882;8.664;2023-06-19T05:32:14;8.10;;;5.80;;
13085;SDS011;6609;49.882;8.664;2023-06-19T05:34:41;11.00;;;6.10;;
13085;SDS011;6609;49.882;8.664;2023-06-19T05:37:08;10.07;;;5.63;;
13085;SDS011;6609;49.882;8.664;2023-06-19T05:39:35;12.23;;;5.40;;
13085;SDS011;6609;49.882;8.664;2023-06-19T05:42:04;9.07;;;5.10;;
13085;SDS011;6609;49.882;8.664;2023-06-19T05:44:31;10.03;;;5.67;;
13085;SDS011;6609;49.882;8.664;2023-06-19T05:46:58;8.80;;;5.17;;
13085;SDS011;6609;49.882;8.664;2023-06-19T05:49:24;7.87;;;5.03;;
13085;SDS011;6609;49.882;8.664;2023-06-19T05:51:51;9.80;;;5.20;;
13085;SDS011;6609;49.882;8.664;2023-06-19T05:54:18;8.87;;;5.40;;
13085;SDS011;6609;49.882;8.664;2023-06-19T05:56:45;12.13;;;5.43;;
13085;SDS011;6609;49.882;8.664;2023-06-19T05:59:16;8.20;;;5.00;;
13085;SDS011;6609;49.882;8.664;2023-06-19T06:01:43;9.93;;;6.00;;
13085;SDS011;6609;49.882;8.664;2023-06-19T06:04:10;11.67;;;5.63;;
13085;SDS011;6609;49.882;8.664;2023-06-19T06:06:37;10.53;;;5.03;;
13085;SDS011;6609;49.882;8.664;2023-06-19T06:09:04;9.13;;;5.23;;
13085;SDS011;6609;49.882;8.664;2023-06-19T06:11:34;9.63;;;5.37;;
13085;SDS011;6609;49.882;8.664;2023-06-19T06:14:01;8.20;;;4.97;;
13085;SDS011;6609;49.882;8.664;2023-06-19T06:16:29;8.57;;;4.67;;
13085;SDS011;6609;49.882;8.664;2023-06-19T06:18:56;8.47;;;5.20;;
13085;SDS011;6609;49.882;8.664;2023-06-19T06:21:23;8.70;;;5.13;;
13085;SDS011;6609;49.882;8.664;2023-06-19T06:23:50;8.90;;;4.77;;
13085;SDS011;6609;49.882;8.664;2023-06-19T06:26:19;10.27;;;4.63;;
13085;SDS011;6609;49.882;8.664;2023-06-19T06:28:46;9.07;;;4.27;;
13085;SDS011;6609;49.882;8.664;2023-06-19T06:31:13;7.60;;;4.90;;
13085;SDS011;6609;49.882;8.664;2023-06-19T06:33:42;14.70;;;5.73;;
13085;SDS011;6609;49.882;8.664;2023-06-19T06:36:08;7.37;;;5.23;;
13085;SDS011;6609;49.882;8.664;2023-06-19T06:38:35;7.10;;;4.90;;
13085;SDS011;6609;49.882;8.664;2023-06-19T06:41:03;10.83;;;6.03;;
13085;SDS011;6609;49.882;8.664;2023-06-19T06:43:30;9.77;;;4.87;;
13085;SDS011;6609;49.882;8.664;2023-06-19T06:45:57;10.00;;;4.77;;
13085;SDS011;6609;49.882;8.664;2023-06-19T06:48:24;9.63;;;5.63;;
13085;SDS011;6609;49.882;8.664;2023-06-19T06:50:52;7.60;;;4.53;;
13085;SDS011;6609;49.882;8.664;2023-06-19T06:53:24;13.37;;;5.53;;
13085;SDS011;6609;49.882;8.664;2023-06-19T06:55:53;10.77;;;4.73;;
13085;SDS011;6609;49.882;8.664;2023-06-19T06:58:19;8.50;;;5.00;;
13085;SDS011;6609;49.882;8.664;2023-06-19T07:00:47;7.70;;;4.57;;
13085;SDS011;6609;49.882;8.664;2023-06-19T07:03:16;5.90;;;4.10;;
13085;SDS011;6609;49.882;8.664;2023-06-19T07:05:43;13.87;;;6.27;;
13085;SDS011;6609;49.882;8.664;2023-06-19T07:08:11;11.07;;;5.20;;
13085;SDS011;6609;49.882;8.664;2023-06-19T07:10:38;8.87;;;5.80;;
13085;SDS011;6609;49.882;8.664;2023-06-19T07:13:05;7.30;;;4.77;;
13085;SDS011;6609;49.882;8.664;2023-06-19T07:15:32;8.33;;;4.73;;
13085;SDS011;6609;49.882;8.664;2023-06-19T07:17:59;7.53;;;4.33;;
13085;SDS011;6609;49.882;8.664;2023-06-19T07:20:26;6.93;;;4.30;;
13085;SDS011;6609;49.882;8.664;2023-06-19T07:22:53;7.27;;;4.67;;
13085;SDS011;6609;49.882;8.664;2023-06-19T07:25:22;5.67;;;3.97;;
13085;SDS011;6609;49.882;8.664;2023-06-19T07:27:50;7.93;;;4.63;;
13085;SDS011;6609;49.882;8.664;2023-06-19T07:30:17;9.33;;;4.17;;
13085;SDS011;6609;49.882;8.664;2023-06-19T07:32:44;8.17;;;4.70;;
13085;SDS011;6609;49.882;8.664;2023-06-19T07:35:11;8.63;;;4.87;;
13085;SDS011;6609;49.882;8.664;2023-06-19T07:37:38;10.03;;;4.53;;
13085;SDS011;6609;49.882;8.664;2023-06-19T07:40:05;10.77;;;4.43;;
13085;SDS011;6609;49.882;8.664;2023-06-19T07:42:34;7.73;;;4.63;;
13085;SDS011;6609;49.882;8.664;2023-06-19T07:45:01;7.23;;;4.50;;
13085;SDS011;6609;49.882;8.664;2023-06-19T07:47:28;8.33;;;4.43;;
13085;SDS011;6609;49.882;8.664;2023-06-19T07:49:55;8.67;;;4.50;;
13085;SDS011;6609;49.882;8.664;2023-06-19T07:52:22;8.13;;;4.70;;
13085;SDS011;6609;49.882;8.664;2023-06-19T07:54:53;6.83;;;3.93;;
13085;SDS011;6609;49.882;8.664;2023-06-19T07:57:20;7.40;;;4.33;;
13085;SDS011;6609;49.882;8.664;2023-06-19T07:59:49;7.13;;;4.07;;
13085;SDS011;6609;49.882;8.664;2023-06-19T08:02:16;5.70;;;3.87;;
13085;SDS011;6609;49.882;8.664;2023-06-19T08:04:44;6.80;;;4.23;;
13085;SDS011;6609;49.882;8.664;2023-06-19T08:07:11;7.90;;;4.37;;
13085;SDS011;6609;49.882;8.664;2023-06-19T08:09:38;6.90;;;4.63;;
13085;SDS011;6609;49.882;8.664;2023-06-19T08:12:05;7.87;;;4.43;;
13085;SDS011;6609;49.882;8.664;2023-06-19T08:14:32;8.77;;;4.70;;
13085;SDS011;6609;49.882;8.664;2023-06-19T08:17:01;6.90;;;4.17;;
13085;SDS011;6609;49.882;8.664;2023-06-19T08:19:27;9.13;;;4.50;;
13085;SDS011;6609;49.882;8.664;2023-06-19T08:21:54;6.73;;;4.57;;
13085;SDS011;6609;49.882;8.664;2023-06-19T08:24:22;7.77;;;4.77;;
13085;SDS011;6609;49.882;8.664;2023-06-19T08:26:49;8.60;;;5.07;;
13085;SDS011;6609;49.882;8.664;2023-06-19T08:29:17;5.40;;;4.23;;
13085;SDS011;6609;49.882;8.664;2023-06-19T08:31:44;7.87;;;4.10;;
13085;SDS011;6609;49.882;8.664;2023-06-19T08:34:12;7.70;;;4.63;;
13085;SDS011;6609;49.882;8.664;2023-06-19T08:36:39;9.30;;;4.73;;
13085;SDS011;6609;49.882;8.664;2023-06-19T08:39:06;7.80;;;5.00;;
13085;SDS011;6609;49.882;8.664;2023-06-19T08:41:33;7.77;;;4.43;;
13085;SDS011;6609;49.882;8.664;2023-06-19T08:44:01;5.50;;;4.57;;
13085;SDS011;6609;49.882;8.664;2023-06-19T08:46:29;7.27;;;4.30;;
13085;SDS011;6609;49.882;8.664;2023-06-19T08:48:56;10.00;;;4.53;;
13085;SDS011;6609;49.882;8.664;2023-06-19T08:51:26;5.97;;;4.17;;
13085;SDS011;6609;49.882;8.664;2023-06-19T08:53:54;7.27;;;4.67;;
13085;SDS011;6609;49.882;8.664;2023-06-19T08:56:22;8.67;;;5.60;;
13085;SDS011;6609;49.882;8.664;2023-06-19T08:58:49;6.97;;;4.73;;
13085;SDS011;6609;49.882;8.664;2023-06-19T09:01:17;5.67;;;4.20;;
13085;SDS011;6609;49.882;8.664;2023-06-19T09:03:46;6.70;;;4.90;;
13085;SDS011;6609;49.882;8.664;2023-06-19T09:06:17;5.77;;;4.13;;
13085;SDS011;6609;49.882;8.664;2023-06-19T09:08:45;7.93;;;5.03;;
13085;SDS011;6609;49.882;8.664;2023-06-19T09:11:23;4.87;;;4.33;;
13085;SDS011;6609;49.882;8.664;2023-06-19T09:13:55;6.80;;;4.40;;
13085;SDS011;6609;49.882;8.664;2023-06-19T09:16:22;6.27;;;4.77;;
13085;SDS011;6609;49.882;8.664;2023-06-19T09:18:49;9.53;;;5.23;;
13085;SDS011;6609;49.882;8.664;2023-06-19T09:21:16;11.03;;;4.97;;
13085;SDS011;6609;49.882;8.664;2023-06-19T09:23:45;7.73;;;4.37;;
13085;SDS011;6609;49.882;8.664;2023-06-19T09:26:13;7.93;;;4.87;;
13085;SDS011;6609;49.882;8.664;2023-06-19T09:28:43;8.30;;;4.73;;
13085;SDS011;6609;49.882;8.664;2023-06-19T09:31:10;10.90;;;5.93;;
13085;SDS011;6609;49.882;8.664;2023-06-19T09:33:39;10.17;;;5.37;;
13085;SDS011;6609;49.882;8.664;2023-06-19T09:36:06;9.27;;;5.13;;
13085;SDS011;6609;49.882;8.664;2023-06-19T09:38:34;6.30;;;4.60;;
13085;SDS011;6609;49.882;8.664;2023-06-19T09:41:04;9.40;;;4.70;;
13085;SDS011;6609;49.882;8.664;2023-06-19T09:43:33;8.70;;;5.17;;
13085;SDS011;6609;49.882;8.664;2023-06-19T09:46:02;8.80;;;4.87;;
13085;SDS011;6609;49.882;8.664;2023-06-19T09:48:30;8.07;;;4.80;;
13085;SDS011;6609;49.882;8.664;2023-06-19T09:51:00;8.30;;;5.00;;
13085;SDS011;6609;49.882;8.664;2023-06-19T09:53:27;7.60;;;5.00;;
13085;SDS011;6609;49.882;8.664;2023-06-19T09:55:54;8.37;;;4.50;;
13085;SDS011;6609;49.882;8.664;2023-06-19T09:58:22;7.73;;;4.97;;
13085;SDS011;6609;49.882;8.664;2023-06-19T10:00:50;7.77;;;5.30;;
13085;SDS011;6609;49.882;8.664;2023-06-19T10:03:20;8.27;;;4.73;;
13085;SDS011;6609;49.882;8.664;2023-06-19T10:05:56;7.53;;;5.23;;
13085;SDS011;6609;49.882;8.664;2023-06-19T10:08:27;8.20;;;4.83;;
13085;SDS011;6609;49.882;8.664;2023-06-19T10:10:55;8.03;;;4.57;;
13085;SDS011;6609;49.882;8.664;2023-06-19T10:13:30;6.53;;;4.13;;
13085;SDS011;6609;49.882;8.664;2023-06-19T10:15:58;8.40;;;4.57;;
13085;SDS011;6609;49.882;8.664;2023-06-19T10:18:26;6.23;;;4.03;;
13085;SDS011;6609;49.882;8.664;2023-06-19T10:20:53;7.70;;;4.77;;
13085;SDS011;6609;49.882;8.664;2023-06-19T10:23:22;7.70;;;4.40;;
13085;SDS011;6609;49.882;8.664;2023-06-19T10:25:55;8.73;;;4.33;;
13085;SDS011;6609;49.882;8.664;2023-06-19T10:28:23;7.77;;;4.33;;
13085;SDS011;6609;49.882;8.664;2023-06-19T10:30:53;9.17;;;5.17;;
13085;SDS011;6609;49.882;8.664;2023-06-19T10:33:20;8.83;;;5.17;;
13085;SDS011;6609;49.882;8.664;2023-06-19T10:35:47;6.27;;;5.00;;
13085;SDS011;6609;49.882;8.664;2023-06-19T10:38:14;6.70;;;4.40;;
13085;SDS011;6609;49.882;8.664;2023-06-19T10:40:42;9.07;;;4.30;;
13085;SDS011;6609;49.882;8.664;2023-06-19T10:43:09;8.10;;;4.93;;
13085;SDS011;6609;49.882;8.664;2023-06-19T10:45:38;8.40;;;4.23;;
13085;SDS011;6609;49.882;8.664;2023-06-19T10:48:05;6.40;;;4.30;;
13085;SDS011;6609;49.882;8.664;2023-06-19T10:50:36;7.67;;;4.93;;
13085;SDS011;6609;49.882;8.664;2023-06-19T10:53:05;6.33;;;4.57;;
13085;SDS011;6609;49.882;8.664;2023-06-19T10:55:33;8.33;;;4.70;;
13085;SDS011;6609;49.882;8.664;2023-06-19T10:58:00;6.83;;;4.83;;
13085;SDS011;6609;49.882;8.664;2023-06-19T11:00:28;6.83;;;4.43;;
13085;SDS011;6609;49.882;8.664;2023-06-19T11:02:57;9.17;;;4.80;;
13085;SDS011;6609;49.882;8.664;2023-06-19T11:05:25;7.47;;;5.33;;
13085;SDS011;6609;49.882;8.664;2023-06-19T11:07:53;8.70;;;4.57;;
13085;SDS011;6609;49.882;8.664;2023-06-19T11:10:20;10.07;;;5.07;;
13085;SDS011;6609;49.882;8.664;2023-06-19T11:12:48;9.47;;;5.10;;
13085;SDS011;6609;49.882;8.664;2023-06-19T11:15:15;8.53;;;4.40;;
13085;SDS011;6609;49.882;8.664;2023-06-19T11:17:42;8.70;;;5.00;;
13085;SDS011;6609;49.882;8.664;2023-06-19T11:20:11;8.60;;;4.53;;
13085;SDS011;6609;49.882;8.664;2023-06-19T11:22:40;8.83;;;4.53;;
13085;SDS011;6609;49.882;8.664;2023-06-19T11:25:08;8.20;;;4.60;;
13085;SDS011;6609;49.882;8.664;2023-06-19T11:27:37;7.87;;;4.70;;
13085;SDS011;6609;49.882;8.664;2023-06-19T11:30:05;8.17;;;4.90;;
13085;SDS011;6609;49.882;8.664;2023-06-19T11:32:34;7.60;;;4.73;;
13085;SDS011;6609;49.882;8.664;2023-06-19T11:35:06;7.83;;;4.70;;
13085;SDS011;6609;49.882;8.664;2023-06-19T11:37:35;7.50;;;4.30;;
13085;SDS011;6609;49.882;8.664;2023-06-19T11:40:02;8.70;;;4.87;;
13085;SDS011;6609;49.882;8.664;2023-06-19T11:42:51;7.80;;;4.27;;
13085;SDS011;6609;49.882;8.664;2023-06-19T11:45:18;8.17;;;4.27;;
13085;SDS011;6609;49.882;8.664;2023-06-19T11:47:45;7.27;;;3.90;;
13085;SDS011;6609;49.882;8.664;2023-06-19T11:50:12;7.20;;;3.70;;
13085;SDS011;6609;49.882;8.664;2023-06-19T11:52:42;9.50;;;4.87;;
13085;SDS011;6609;49.882;8.664;2023-06-19T11:55:10;7.90;;;4.43;;
13085;SDS011;6609;49.882;8.664;2023-06-19T11:57:38;8.33;;;4.53;;
13085;SDS011;6609;49.882;8.664;2023-06-19T12:00:12;8.00;;;4.60;;
13085;SDS011;6609;49.882;8.664;2023-06-19T12:02:40;6.93;;;3.90;;
13085;SDS011;6609;49.882;8.664;2023-06-19T12:05:07;6.47;;;4.10;;
13085;SDS011;6609;49.882;8.664;2023-06-19T12:07:35;6.07;;;4.10;;
13085;SDS011;6609;49.882;8.664;2023-06-19T12:10:04;5.67;;;3.70;;
13085;SDS011;6609;49.882;8.664;2023-06-19T12:12:34;6.37;;;4.30;;
13085;SDS011;6609;49.882;8.664;2023-06-19T12:15:02;6.90;;;4.00;;
13085;SDS011;6609;49.882;8.664;2023-06-19T12:17:29;5.07;;;3.83;;
13085;SDS011;6609;49.882;8.664;2023-06-19T12:19:56;5.03;;;3.70;;
13085;SDS011;6609;49.882;8.664;2023-06-19T12:22:23;7.03;;;3.90;;
13085;SDS011;6609;49.882;8.664;2023-06-19T12:24:50;5.57;;;3.90;;
13085;SDS011;6609;49.882;8.664;2023-06-19T12:27:18;7.07;;;3.70;;
13085;SDS011;6609;49.882;8.664;2023-06-19T12:29:45;7.77;;;4.57;;
13085;SDS011;6609;49.882;8.664;2023-06-19T12:32:12;5.83;;;4.10;;
13085;SDS011;6609;49.882;8.664;2023-06-19T12:34:39;7.07;;;4.03;;
13085;SDS011;6609;49.882;8.664;2023-06-19T12:37:11;5.30;;;3.73;;
13085;SDS011;6609;49.882;8.664;2023-06-19T12:39:38;6.63;;;4.10;;
13085;SDS011;6609;49.882;8.664;2023-06-19T12:42:06;5.90;;;4.07;;
13085;SDS011;6609;49.882;8.664;2023-06-19T12:44:35;6.17;;;4.13;;
13085;SDS011;6609;49.882;8.664;2023-06-19T12:47:02;6.90;;;4.27;;
13085;SDS011;6609;49.882;8.664;2023-06-19T12:49:29;5.50;;;3.93;;
13085;SDS011;6609;49.882;8.664;2023-06-19T12:51:57;6.70;;;4.40;;
13085;SDS011;6609;49.882;8.664;2023-06-19T12:54:24;8.30;;;4.03;;
13085;SDS011;6609;49.882;8.664;2023-06-19T12:56:51;7.80;;;4.27;;
13085;SDS011;6609;49.882;8.664;2023-06-19T12:59:18;6.27;;;4.40;;
13085;SDS011;6609;49.882;8.664;2023-06-19T13:01:47;9.47;;;4.67;;
13085;SDS011;6609;49.882;8.664;2023-06-19T13:04:14;7.53;;;4.53;;
13085;SDS011;6609;49.882;8.664;2023-06-19T13:06:41;4.97;;;4.00;;
13085;SDS011;6609;49.882;8.664;2023-06-19T13:09:08;5.07;;;3.93;;
13085;SDS011;6609;49.882;8.664;2023-06-19T13:11:35;5.67;;;3.90;;
13085;SDS011;6609;49.882;8.664;2023-06-19T13:14:02;9.00;;;4.30;;
13085;SDS011;6609;49.882;8.664;2023-06-19T13:16:30;7.87;;;4.30;;
13085;SDS011;6609;49.882;8.664;2023-06-19T13:18:58;6.37;;;4.03;;
13085;SDS011;6609;49.882;8.664;2023-06-19T13:21:25;6.53;;;3.83;;
13085;SDS011;6609;49.882;8.664;2023-06-19T13:23:52;9.40;;;4.33;;
13085;SDS011;6609;49.882;8.664;2023-06-19T13:26:19;8.43;;;4.97;;
13085;SDS011;6609;49.882;8.664;2023-06-19T13:28:46;7.40;;;4.37;;
13085;SDS011;6609;49.882;8.664;2023-06-19T13:31:13;7.37;;;4.10;;
13085;SDS011;6609;49.882;8.664;2023-06-19T13:33:40;7.17;;;4.13;;
13085;SDS011;6609;49.882;8.664;2023-06-19T13:36:09;5.43;;;3.60;;
13085;SDS011;6609;49.882;8.664;2023-06-19T13:38:35;6.93;;;4.83;;
13085;SDS011;6609;49.882;8.664;2023-06-19T13:41:02;8.23;;;4.63;;
13085;SDS011;6609;49.882;8.664;2023-06-19T13:43:31;6.13;;;4.27;;
13085;SDS011;6609;49.882;8.664;2023-06-19T13:45:58;7.63;;;4.67;;
13085;SDS011;6609;49.882;8.664;2023-06-19T13:48:28;5.30;;;3.63;;
13085;SDS011;6609;49.882;8.664;2023-06-19T13:50:55;6.47;;;3.80;;
13085;SDS011;6609;49.882;8.664;2023-06-19T13:53:25;6.73;;;4.13;;
13085;SDS011;6609;49.882;8.664;2023-06-19T13:55:53;9.70;;;3.93;;
13085;SDS011;6609;49.882;8.664;2023-06-19T13:58:20;5.27;;;4.07;;
13085;SDS011;6609;49.882;8.664;2023-06-19T14:00:47;6.73;;;4.17;;
13085;SDS011;6609;49.882;8.664;2023-06-19T14:03:14;6.23;;;4.13;;
13085;SDS011;6609;49.882;8.664;2023-06-19T14:05:41;8.13;;;4.23;;
13085;SDS011;6609;49.882;8.664;2023-06-19T14:08:08;8.57;;;4.90;;
13085;SDS011;6609;49.882;8.664;2023-06-19T14:10:37;6.90;;;4.20;;
13085;SDS011;6609;49.882;8.664;2023-06-19T14:13:04;6.57;;;3.90;;
13085;SDS011;6609;49.882;8.664;2023-06-19T14:15:31;7.40;;;4.43;;
13085;SDS011;6609;49.882;8.664;2023-06-19T14:17:58;6.13;;;3.70;;
13085;SDS011;6609;49.882;8.664;2023-06-19T14:20:25;9.33;;;4.07;;
13085;SDS011;6609;49.882;8.664;2023-06-19T14:22:52;6.73;;;4.60;;
13085;SDS011;6609;49.882;8.664;2023-06-19T14:25:19;5.83;;;3.80;;
13085;SDS011;6609;49.882;8.664;2023-06-19T14:27:47;11.00;;;4.47;;
13085;SDS011;6609;49.882;8.664;2023-06-19T14:30:15;10.70;;;5.47;;
13085;SDS011;6609;49.882;8.664;2023-06-19T14:32:41;8.47;;;4.10;;
13085;SDS011;6609;49.882;8.664;2023-06-19T14:35:08;8.03;;;4.60;;
13085;SDS011;6609;49.882;8.664;2023-06-19T14:37:35;7.67;;;4.53;;
13085;SDS011;6609;49.882;8.664;2023-06-19T14:40:03;7.60;;;3.90;;
13085;SDS011;6609;49.882;8.664;2023-06-19T14:42:30;151.80;;;16.67;;
13085;SDS011;6609;49.882;8.664;2023-06-19T14:44:58;27.47;;;5.67;;
13085;SDS011;6609;49.882;8.664;2023-06-19T14:47:25;12.77;;;4.07;;
13085;SDS011;6609;49.882;8.664;2023-06-19T14:49:52;11.87;;;4.23;;
13085;SDS011;6609;49.882;8.664;2023-06-19T14:52:19;13.53;;;3.93;;
13085;SDS011;6609;49.882;8.664;2023-06-19T14:54:46;5.00;;;3.60;;
13085;SDS011;6609;49.882;8.664;2023-06-19T14:57:13;5.40;;;3.47;;
13085;SDS011;6609;49.882;8.664;2023-06-19T14:59:40;6.47;;;3.30;;